sensor_id;sensor_type;location;lat;lon;timestamp;pressure;altitude;pressure_sealevel;temperature;humidity
69766;BME280;57039;48.014;21.384;2023-02-12T15:36:34;102639.72;;;3.64;83.51
69766;BME280;57039;48.014;21.384;2023-02-12T15:37:42;102643.09;;;3.53;83.84
69766;BME280;57039;48.014;21.384;2023-02-12T15:38:56;102643.94;;;3.49;84.24
69766;BME280;57039;48.014;21.384;2023-02-12T15:40:05;102654.25;;;3.42;84.39
69766;BME280;57039;48.014;21.384;2023-02-12T15:41:33;102655.91;;;3.37;84.90
69766;BME280;57039;48.014;21.384;2023-02-12T15:42:38;102650.63;;;3.25;85.17
69766;BME280;57039;48.014;21.384;2023-02-12T15:43:46;102654.06;;;3.26;85.14
69766;BME280;57039;48.014;21.384;2023-02-12T15:45:00;102662.66;;;3.20;85.45
69766;BME280;57039;48.014;21.384;2023-02-12T15:46:11;102654.84;;;3.17;85.79
69766;BME280;57039;48.014;21.384;2023-02-12T15:47:25;102655.72;;;3.16;85.83
69766;BME280;57039;48.014;21.384;2023-02-12T15:48:34;102660.81;;;3.07;86.14
69766;BME280;57039;48.014;21.384;2023-02-12T15:49:58;102663.41;;;3.07;86.31
69766;BME280;57039;48.014;21.384;2023-02-12T15:51:27;102672.00;;;3.03;86.70
69766;BME280;57039;48.014;21.384;2023-02-12T15:52:40;102663.28;;;2.96;86.86
69766;BME280;57039;48.014;21.384;2023-02-12T15:53:45;102667.50;;;2.89;87.24
69766;BME280;57039;48.014;21.384;2023-02-12T15:54:51;102657.06;;;2.82;87.15
69766;BME280;57039;48.014;21.384;2023-02-12T15:56:00;102670.03;;;2.82;87.39
69766;BME280;57039;48.014;21.384;2023-02-12T15:57:11;102662.19;;;2.77;87.49
69766;BME280;57039;48.014;21.384;2023-02-12T15:59:26;102666.44;;;2.72;87.53
69766;BME280;57039;48.014;21.384;2023-02-12T16:00:42;102672.44;;;2.68;87.58
69766;BME280;57039;48.014;21.384;2023-02-12T16:01:58;102670.72;;;2.67;87.79
69766;BME280;57039;48.014;21.384;2023-02-12T16:04:26;102667.16;;;2.60;88.14
69766;BME280;57039;48.014;21.384;2023-02-12T16:05:32;102668.00;;;2.58;88.34
69766;BME280;57039;48.014;21.384;2023-02-12T16:06:38;102669.72;;;2.57;88.42
69766;BME280;57039;48.014;21.384;2023-02-12T16:07:47;102678.31;;;2.53;88.55
69766;BME280;57039;48.014;21.384;2023-02-12T16:09:17;102673.03;;;2.45;88.69
69766;BME280;57039;48.014;21.384;2023-02-12T16:10:23;102679.09;;;2.46;88.71
69766;BME280;57039;48.014;21.384;2023-02-12T16:11:31;102689.41;;;2.44;88.82
69766;BME280;57039;48.014;21.384;2023-02-12T16:12:38;102683.25;;;2.36;89.04
69766;BME280;57039;48.014;21.384;2023-02-12T16:13:51;102690.09;;;2.33;89.16
69766;BME280;57039;48.014;21.384;2023-02-12T16:14:57;102690.09;;;2.33;89.17
69766;BME280;57039;48.014;21.384;2023-02-12T16:16:28;102685.78;;;2.32;89.17
69766;BME280;57039;48.014;21.384;2023-02-12T16:17:35;102693.47;;;2.25;89.41
69766;BME280;57039;48.014;21.384;2023-02-12T16:18:43;102687.41;;;2.25;89.55
69766;BME280;57039;48.014;21.384;2023-02-12T16:19:58;102685.66;;;2.24;89.42
69766;BME280;57039;48.014;21.384;2023-02-12T16:22:21;102687.28;;;2.16;89.69
69766;BME280;57039;48.014;21.384;2023-02-12T16:23:30;102693.28;;;2.15;89.82
69766;BME280;57039;48.014;21.384;2023-02-12T16:24:53;102660.13;;;1.89;89.95
69766;BME280;57039;48.014;21.384;2023-02-12T16:25:59;102694.97;;;2.10;90.20
69766;BME280;57039;48.014;21.384;2023-02-12T16:28:25;102700.91;;;2.05;90.24
69766;BME280;57039;48.014;21.384;2023-02-12T16:29:31;102706.12;;;2.07;90.34
69766;BME280;57039;48.014;21.384;2023-02-12T16:30:41;102706.91;;;2.03;90.54
69766;BME280;57039;48.014;21.384;2023-02-12T16:31:55;102709.47;;;2.00;90.58
69766;BME280;57039;48.014;21.384;2023-02-12T16:33:01;102705.16;;;2.00;90.68
69766;BME280;57039;48.014;21.384;2023-02-12T16:34:26;102705.16;;;2.00;90.53
69766;BME280;57039;48.014;21.384;2023-02-12T16:35:34;102711.16;;;1.98;90.79
69766;BME280;57039;48.014;21.384;2023-02-12T16:36:45;102713.66;;;1.93;91.02
69766;BME280;57039;48.014;21.384;2023-02-12T16:45:37;102706.56;;;1.81;91.69
69766;BME280;57039;48.014;21.384;2023-02-12T16:46:51;102706.62;;;1.83;91.78
69766;BME280;57039;48.014;21.384;2023-02-12T16:49:19;102703.06;;;1.78;92.04
69766;BME280;57039;48.014;21.384;2023-02-12T16:50:44;102708.19;;;1.76;92.08
69766;BME280;57039;48.014;21.384;2023-02-12T16:51:52;102711.59;;;1.71;92.28
69766;BME280;57039;48.014;21.384;2023-02-12T16:53:34;102707.22;;;1.68;92.47
69766;BME280;57039;48.014;21.384;2023-02-12T16:54:39;102721.03;;;1.70;92.46
69766;BME280;57039;48.014;21.384;2023-02-12T16:55:47;102720.97;;;1.67;92.60
69766;BME280;57039;48.014;21.384;2023-02-12T16:56:53;102727.87;;;1.65;92.71
69766;BME280;57039;48.014;21.384;2023-02-12T16:58:00;102722.59;;;1.60;92.87
69766;BME280;57039;48.014;21.384;2023-02-12T16:59:05;102730.34;;;1.60;92.96
69766;BME280;57039;48.014;21.384;2023-02-12T17:00:15;102723.47;;;1.61;93.05
69766;BME280;57039;48.014;21.384;2023-02-12T17:01:32;102729.50;;;1.60;93.25
69766;BME280;57039;48.014;21.384;2023-02-12T17:02:38;102735.53;;;1.59;93.30
69766;BME280;57039;48.014;21.384;2023-02-12T17:03:43;102736.28;;;1.53;93.44
69766;BME280;57039;48.014;21.384;2023-02-12T17:04:50;102738.00;;;1.54;93.44
69766;BME280;57039;48.014;21.384;2023-02-12T17:05:54;102738.87;;;1.55;93.46
69766;BME280;57039;48.014;21.384;2023-02-12T17:07:00;102738.87;;;1.53;93.52
69766;BME280;57039;48.014;21.384;2023-02-12T17:08:14;102738.00;;;1.53;93.62
69766;BME280;57039;48.014;21.384;2023-02-12T17:09:21;102734.50;;;1.51;93.64
69766;BME280;57039;48.014;21.384;2023-02-12T17:10:26;102740.53;;;1.51;93.68
69766;BME280;57039;48.014;21.384;2023-02-12T17:11:35;102737.03;;;1.49;93.66
69766;BME280;57039;48.014;21.384;2023-02-12T17:12:48;102740.50;;;1.48;93.73
69766;BME280;57039;48.014;21.384;2023-02-12T17:13:55;102739.63;;;1.48;93.97
69766;BME280;57039;48.014;21.384;2023-02-12T17:15:03;102733.53;;;1.44;94.02
69766;BME280;57039;48.014;21.384;2023-02-12T17:16:08;102741.25;;;1.43;94.15
69766;BME280;57039;48.014;21.384;2023-02-12T17:17:21;102708.94;;;1.22;94.34
69766;BME280;57039;48.014;21.384;2023-02-12T17:18:28;102734.28;;;1.39;94.53
69766;BME280;57039;48.014;21.384;2023-02-12T17:19:36;102734.28;;;1.39;94.56
69766;BME280;57039;48.014;21.384;2023-02-12T17:20:50;102732.50;;;1.36;94.59
69766;BME280;57039;48.014;21.384;2023-02-12T17:21:56;102719.41;;;1.27;94.62
69766;BME280;57039;48.014;21.384;2023-02-12T17:23:00;102726.34;;;1.29;94.64
69766;BME280;57039;48.014;21.384;2023-02-12T17:24:27;102725.50;;;1.30;94.75
69766;BME280;57039;48.014;21.384;2023-02-12T17:25:32;102726.31;;;1.28;94.84
69766;BME280;57039;48.014;21.384;2023-02-12T17:26:38;102727.16;;;1.27;94.81
69766;BME280;57039;48.014;21.384;2023-02-12T17:27:43;102728.00;;;1.26;94.85
69766;BME280;57039;48.014;21.384;2023-02-12T17:28:48;102735.75;;;1.26;94.87
69766;BME280;57039;48.014;21.384;2023-02-12T17:29:54;102729.69;;;1.24;95.02
69766;BME280;57039;48.014;21.384;2023-02-12T17:30:59;102730.53;;;1.23;95.15
69766;BME280;57039;48.014;21.384;2023-02-12T17:32:06;102732.22;;;1.22;95.11
69766;BME280;57039;48.014;21.384;2023-02-12T17:33:12;102728.75;;;1.20;95.23
69766;BME280;57039;48.014;21.384;2023-02-12T17:34:18;102733.03;;;1.20;95.29
69766;BME280;57039;48.014;21.384;2023-02-12T17:35:24;102732.16;;;1.18;95.37
69766;BME280;57039;48.014;21.384;2023-02-12T17:36:30;102728.66;;;1.16;95.49
69766;BME280;57039;48.014;21.384;2023-02-12T17:37:40;102733.81;;;1.16;95.46
69766;BME280;57039;48.014;21.384;2023-02-12T17:38:45;102732.97;;;1.17;95.56
69766;BME280;57039;48.014;21.384;2023-02-12T17:39:50;102732.09;;;1.16;95.51
69766;BME280;57039;48.014;21.384;2023-02-12T17:40:55;102693.72;;;0.90;95.44
69766;BME280;57039;48.014;21.384;2023-02-12T17:42:01;102738.06;;;1.13;95.45
69766;BME280;57039;48.014;21.384;2023-02-12T17:43:07;102745.84;;;1.13;95.42
69766;BME280;57039;48.014;21.384;2023-02-12T17:44:12;102743.22;;;1.12;95.51
69766;BME280;57039;48.014;21.384;2023-02-12T17:45:19;102744.09;;;1.12;95.48
69766;BME280;57039;48.014;21.384;2023-02-12T17:46:26;102731.91;;;1.05;95.55
69766;BME280;57039;48.014;21.384;2023-02-12T17:47:31;102740.59;;;1.09;95.68
69766;BME280;57039;48.014;21.384;2023-02-12T17:48:43;102739.72;;;1.08;95.68
69766;BME280;57039;48.014;21.384;2023-02-12T17:49:49;102741.38;;;1.05;95.81
69766;BME280;57039;48.014;21.384;2023-02-12T17:50:54;102743.06;;;1.04;95.83
69766;BME280;57039;48.014;21.384;2023-02-12T17:52:04;102737.91;;;1.04;95.90
69766;BME280;57039;48.014;21.384;2023-02-12T17:53:10;102742.19;;;1.04;96.02
69766;BME280;57039;48.014;21.384;2023-02-12T17:54:14;102740.47;;;1.03;96.15
69766;BME280;57039;48.014;21.384;2023-02-12T17:55:21;102745.59;;;1.01;96.14
69766;BME280;57039;48.014;21.384;2023-02-12T17:56:26;102743.84;;;1.00;96.05
69766;BME280;57039;48.014;21.384;2023-02-12T17:57:31;102744.66;;;0.98;96.21
69766;BME280;57039;48.014;21.384;2023-02-12T17:58:38;102745.50;;;0.97;96.22
69766;BME280;57039;48.014;21.384;2023-02-12T17:59:47;102747.22;;;0.96;96.28
69766;BME280;57039;48.014;21.384;2023-02-12T18:00:52;102751.53;;;0.97;96.23
69766;BME280;57039;48.014;21.384;2023-02-12T18:02:00;102754.97;;;0.96;96.30
69766;BME280;57039;48.014;21.384;2023-02-12T18:03:08;102749.75;;;0.95;96.30
69766;BME280;57039;48.014;21.384;2023-02-12T18:04:13;102759.25;;;0.96;96.35
69766;BME280;57039;48.014;21.384;2023-02-12T18:05:18;102733.22;;;0.85;96.42
69766;BME280;57039;48.014;21.384;2023-02-12T18:06:27;102748.84;;;0.91;96.49
69766;BME280;57039;48.014;21.384;2023-02-12T18:07:34;102753.13;;;0.90;96.64
69766;BME280;57039;48.014;21.384;2023-02-12T18:08:42;102726.25;;;0.81;96.63
69766;BME280;57039;48.014;21.384;2023-02-12T18:09:48;102734.00;;;0.82;96.77
69766;BME280;57039;48.014;21.384;2023-02-12T18:10:54;102747.91;;;0.87;96.75
69766;BME280;57039;48.014;21.384;2023-02-12T18:11:59;102745.31;;;0.87;96.86
69766;BME280;57039;48.014;21.384;2023-02-12T18:13:04;102746.13;;;0.85;96.81
69766;BME280;57039;48.014;21.384;2023-02-12T18:14:11;102696.47;;;0.59;96.75
69766;BME280;57039;48.014;21.384;2023-02-12T18:15:16;102744.41;;;0.85;96.92
69766;BME280;57039;48.014;21.384;2023-02-12T18:16:24;102747.78;;;0.81;96.88
69766;BME280;57039;48.014;21.384;2023-02-12T18:17:29;102758.19;;;0.86;96.88
69766;BME280;57039;48.014;21.384;2023-02-12T18:18:37;102759.03;;;0.85;96.93
69766;BME280;57039;48.014;21.384;2023-02-12T18:19:44;102759.91;;;0.84;96.95
69766;BME280;57039;48.014;21.384;2023-02-12T18:20:49;102759.00;;;0.83;97.01
69766;BME280;57039;48.014;21.384;2023-02-12T18:21:56;102758.06;;;0.80;97.17
69766;BME280;57039;48.014;21.384;2023-02-12T18:23:01;102759.78;;;0.79;97.26
69766;BME280;57039;48.014;21.384;2023-02-12T18:24:10;102758.87;;;0.77;97.33
69766;BME280;57039;48.014;21.384;2023-02-12T18:25:16;102742.44;;;0.74;97.47
69766;BME280;57039;48.014;21.384;2023-02-12T18:26:23;102746.75;;;0.75;97.40
69766;BME280;57039;48.014;21.384;2023-02-12T18:27:28;102747.59;;;0.74;97.53
69766;BME280;57039;48.014;21.384;2023-02-12T18:28:35;102750.03;;;0.67;97.87
69766;BME280;57039;48.014;21.384;2023-02-12T18:29:42;102750.81;;;0.63;98.02
69766;BME280;57039;48.014;21.384;2023-02-12T18:30:54;102750.69;;;0.57;98.29
69766;BME280;57039;48.014;21.384;2023-02-12T18:32:00;102754.09;;;0.56;98.42
69766;BME280;57039;48.014;21.384;2023-02-12T18:33:09;102751.50;;;0.56;98.54
69766;BME280;57039;48.014;21.384;2023-02-12T18:34:17;102735.88;;;0.49;98.50
69766;BME280;57039;48.014;21.384;2023-02-12T18:35:24;102751.56;;;0.59;98.54
69766;BME280;57039;48.014;21.384;2023-02-12T18:36:29;102753.34;;;0.60;98.44
69766;BME280;57039;48.014;21.384;2023-02-12T18:37:35;102750.81;;;0.63;98.49
69766;BME280;57039;48.014;21.384;2023-02-12T18:38:41;102752.63;;;0.67;98.26
69766;BME280;57039;48.014;21.384;2023-02-12T18:39:48;102750.91;;;0.68;98.26
69766;BME280;57039;48.014;21.384;2023-02-12T18:40:56;102751.84;;;0.70;98.19
69766;BME280;57039;48.014;21.384;2023-02-12T18:42:03;102742.41;;;0.72;98.23
69766;BME280;57039;48.014;21.384;2023-02-12T18:43:10;102744.16;;;0.73;98.20
69766;BME280;57039;48.014;21.384;2023-02-12T18:44:15;102739.84;;;0.74;98.22
69766;BME280;57039;48.014;21.384;2023-02-12T18:45:21;102739.91;;;0.75;98.11
69766;BME280;57039;48.014;21.384;2023-02-12T18:46:29;102737.31;;;0.75;98.16
69766;BME280;57039;48.014;21.384;2023-02-12T18:47:36;102739.00;;;0.75;98.25
69766;BME280;57039;48.014;21.384;2023-02-12T18:48:42;102738.13;;;0.73;98.33
69766;BME280;57039;48.014;21.384;2023-02-12T18:49:47;102738.97;;;0.73;98.35
69766;BME280;57039;48.014;21.384;2023-02-12T18:50:52;102722.38;;;0.62;98.53
69766;BME280;57039;48.014;21.384;2023-02-12T18:52:06;102736.31;;;0.70;98.67
69766;BME280;57039;48.014;21.384;2023-02-12T18:53:11;102723.16;;;0.59;98.85
69766;BME280;57039;48.014;21.384;2023-02-12T18:54:17;102729.31;;;0.64;98.88
69766;BME280;57039;48.014;21.384;2023-02-12T18:55:22;102735.41;;;0.66;98.80
69766;BME280;57039;48.014;21.384;2023-02-12T18:56:29;102731.03;;;0.64;98.98
69766;BME280;57039;48.014;21.384;2023-02-12T18:57:35;102734.53;;;0.66;98.83
69766;BME280;57039;48.014;21.384;2023-02-12T18:58:41;102745.72;;;0.66;98.78
69766;BME280;57039;48.014;21.384;2023-02-12T18:59:47;102743.94;;;0.64;98.80
69766;BME280;57039;48.014;21.384;2023-02-12T19:00:52;102739.59;;;0.61;98.88
69766;BME280;57039;48.014;21.384;2023-02-12T19:01:58;102738.72;;;0.61;98.93
69766;BME280;57039;48.014;21.384;2023-02-12T19:03:04;102737.88;;;0.62;98.96
69766;BME280;57039;48.014;21.384;2023-02-12T19:04:14;102746.53;;;0.64;98.92
69766;BME280;57039;48.014;21.384;2023-02-12T19:05:22;102749.97;;;0.64;99.03
69766;BME280;57039;48.014;21.384;2023-02-12T19:06:28;102749.13;;;0.65;98.95
69766;BME280;57039;48.014;21.384;2023-02-12T19:07:33;102742.97;;;0.59;99.06
69766;BME280;57039;48.014;21.384;2023-02-12T19:08:40;102746.47;;;0.61;99.17
69766;BME280;57039;48.014;21.384;2023-02-12T19:09:48;102739.47;;;0.57;99.20
69766;BME280;57039;48.014;21.384;2023-02-12T19:10:54;102748.13;;;0.59;99.21
69766;BME280;57039;48.014;21.384;2023-02-12T19:12:04;102745.53;;;0.59;99.32
69766;BME280;57039;48.014;21.384;2023-02-12T19:13:10;102750.78;;;0.62;99.29
69766;BME280;57039;48.014;21.384;2023-02-12T19:14:18;102748.25;;;0.63;99.08
69766;BME280;57039;48.014;21.384;2023-02-12T19:15:27;102714.19;;;0.42;98.98
69766;BME280;57039;48.014;21.384;2023-02-12T19:16:36;102741.25;;;0.59;98.99
69766;BME280;57039;48.014;21.384;2023-02-12T19:17:41;102754.28;;;0.65;99.00
69766;BME280;57039;48.014;21.384;2023-02-12T19:18:54;102755.03;;;0.60;99.25
69766;BME280;57039;48.014;21.384;2023-02-12T19:20:00;102761.13;;;0.62;99.19
69766;BME280;57039;48.014;21.384;2023-02-12T19:21:09;102761.09;;;0.60;99.28
69766;BME280;57039;48.014;21.384;2023-02-12T19:22:15;102766.25;;;0.60;99.23
69766;BME280;57039;48.014;21.384;2023-02-12T19:23:20;102765.47;;;0.63;99.22
69766;BME280;57039;48.014;21.384;2023-02-12T19:24:27;102763.75;;;0.63;99.25
69766;BME280;57039;48.014;21.384;2023-02-12T19:25:49;102767.06;;;0.58;99.31
69766;BME280;57039;48.014;21.384;2023-02-12T19:26:54;102766.06;;;0.51;99.28
69766;BME280;57039;48.014;21.384;2023-02-12T19:28:00;102768.69;;;0.54;99.41
69766;BME280;57039;48.014;21.384;2023-02-12T19:29:06;102779.78;;;0.50;99.66
69766;BME280;57039;48.014;21.384;2023-02-12T19:30:11;102778.13;;;0.52;99.69
69766;BME280;57039;48.014;21.384;2023-02-12T19:32:31;102782.34;;;0.50;99.78
69766;BME280;57039;48.014;21.384;2023-02-12T19:33:36;102784.94;;;0.50;99.79
69766;BME280;57039;48.014;21.384;2023-02-12T19:34:42;102783.22;;;0.51;99.85
69766;BME280;57039;48.014;21.384;2023-02-12T19:35:49;102784.12;;;0.51;99.82
69766;BME280;57039;48.014;21.384;2023-02-12T19:36:55;102781.28;;;0.40;100.00
69766;BME280;57039;48.014;21.384;2023-02-12T19:38:01;102791.72;;;0.45;100.00
69766;BME280;57039;48.014;21.384;2023-02-12T19:39:15;102789.16;;;0.47;100.00
69766;BME280;57039;48.014;21.384;2023-02-12T19:40:22;102791.56;;;0.39;100.00
69766;BME280;57039;48.014;21.384;2023-02-12T19:41:29;102787.28;;;0.39;100.00
69766;BME280;57039;48.014;21.384;2023-02-12T19:42:38;102786.25;;;0.33;100.00
69766;BME280;57039;48.014;21.384;2023-02-12T19:43:43;102787.28;;;0.39;100.00
69766;BME280;57039;48.014;21.384;2023-02-12T19:44:48;102783.72;;;0.34;100.00
69766;BME280;57039;48.014;21.384;2023-02-12T19:46:00;102774.97;;;0.29;100.00
69766;BME280;57039;48.014;21.384;2023-02-12T19:47:09;102778.41;;;0.28;100.00
69766;BME280;57039;48.014;21.384;2023-02-12T19:48:15;102784.41;;;0.27;100.00
69766;BME280;57039;48.014;21.384;2023-02-12T19:49:23;102780.88;;;0.23;100.00
69766;BME280;57039;48.014;21.384;2023-02-12T19:50:29;102783.53;;;0.27;100.00
69766;BME280;57039;48.014;21.384;2023-02-12T19:51:37;102787.00;;;0.27;100.00
69766;BME280;57039;48.014;21.384;2023-02-12T19:52:42;102787.03;;;0.29;100.00
69766;BME280;57039;48.014;21.384;2023-02-12T19:53:50;102784.44;;;0.29;100.00
69766;BME280;57039;48.014;21.384;2023-02-12T19:54:56;102788.75;;;0.30;100.00
69766;BME280;57039;48.014;21.384;2023-02-12T19:56:02;102787.94;;;0.31;100.00
69766;BME280;57039;48.014;21.384;2023-02-12T19:57:13;102792.25;;;0.32;100.00
69766;BME280;57039;48.014;21.384;2023-02-12T19:58:19;102792.19;;;0.29;100.00
69766;BME280;57039;48.014;21.384;2023-02-12T19:59:28;102800.00;;;0.32;100.00
69766;BME280;57039;48.014;21.384;2023-02-12T20:00:34;102796.56;;;0.33;100.00
69766;BME280;57039;48.014;21.384;2023-02-12T20:01:39;102806.91;;;0.33;100.00
69766;BME280;57039;48.014;21.384;2023-02-12T20:02:44;102810.31;;;0.32;100.00
69766;BME280;57039;48.014;21.384;2023-02-12T20:03:50;102792.87;;;0.21;100.00
69766;BME280;57039;48.014;21.384;2023-02-12T20:04:57;102823.16;;;0.29;100.00
69766;BME280;57039;48.014;21.384;2023-02-12T20:06:05;102758.63;;;-0.06;100.00
69766;BME280;57039;48.014;21.384;2023-02-12T20:07:15;102814.47;;;0.25;100.00
69766;BME280;57039;48.014;21.384;2023-02-12T20:08:22;102822.13;;;0.22;100.00
69766;BME280;57039;48.014;21.384;2023-02-12T20:09:27;102821.28;;;0.21;100.00
69766;BME280;57039;48.014;21.384;2023-02-12T20:10:32;102828.16;;;0.21;100.00
69766;BME280;57039;48.014;21.384;2023-02-12T20:11:37;102828.03;;;0.16;100.00
69766;BME280;57039;48.014;21.384;2023-02-12T20:12:44;102835.69;;;0.13;100.00
69766;BME280;57039;48.014;21.384;2023-02-12T20:13:50;102837.41;;;0.14;100.00
69766;BME280;57039;48.014;21.384;2023-02-12T20:14:58;102844.28;;;0.12;100.00
69766;BME280;57039;48.014;21.384;2023-02-12T20:16:11;102840.75;;;0.10;100.00
69766;BME280;57039;48.014;21.384;2023-02-12T20:17:17;102840.53;;;0.01;100.00
69766;BME280;57039;48.014;21.384;2023-02-12T20:18:33;102843.03;;;-0.02;100.00
69766;BME280;57039;48.014;21.384;2023-02-12T20:19:37;102852.44;;;-0.04;100.00
69766;BME280;57039;48.014;21.384;2023-02-12T20:20:42;102838.50;;;-0.11;100.00
69766;BME280;57039;48.014;21.384;2023-02-12T20:21:49;102845.47;;;-0.07;100.00
69766;BME280;57039;48.014;21.384;2023-02-12T20:22:59;102847.88;;;-0.13;100.00
69766;BME280;57039;48.014;21.384;2023-02-12T20:24:05;102856.41;;;-0.15;100.00
69766;BME280;57039;48.014;21.384;2023-02-12T20:25:10;102852.84;;;-0.20;100.00
69766;BME280;57039;48.014;21.384;2023-02-12T20:26:16;102850.19;;;-0.24;100.00
69766;BME280;57039;48.014;21.384;2023-02-12T20:27:22;102853.56;;;-0.26;100.00
69766;BME280;57039;48.014;21.384;2023-02-12T20:28:27;102852.59;;;-0.30;100.00
69766;BME280;57039;48.014;21.384;2023-02-12T20:29:38;102855.09;;;-0.33;100.00
69766;BME280;57039;48.014;21.384;2023-02-12T20:30:46;102852.44;;;-0.36;100.00
69766;BME280;57039;48.014;21.384;2023-02-12T20:31:52;102852.31;;;-0.40;100.00
69766;BME280;57039;48.014;21.384;2023-02-12T20:32:58;102855.56;;;-0.46;100.00
69766;BME280;57039;48.014;21.384;2023-02-12T20:34:09;102854.72;;;-0.45;100.00
69766;BME280;57039;48.014;21.384;2023-02-12T20:35:17;102855.56;;;-0.46;100.00
69766;BME280;57039;48.014;21.384;2023-02-12T20:36:22;102850.41;;;-0.46;100.00
69766;BME280;57039;48.014;21.384;2023-02-12T20:37:33;102851.34;;;-0.44;100.00
69766;BME280;57039;48.014;21.384;2023-02-12T20:38:41;102853.06;;;-0.44;100.00
69766;BME280;57039;48.014;21.384;2023-02-12T20:39:46;102852.22;;;-0.43;100.00
69766;BME280;57039;48.014;21.384;2023-02-12T20:40:51;102853.87;;;-0.46;100.00
69766;BME280;57039;48.014;21.384;2023-02-12T20:41:59;102847.91;;;-0.44;100.00
69766;BME280;57039;48.014;21.384;2023-02-12T20:43:04;102846.97;;;-0.47;100.00
69766;BME280;57039;48.014;21.384;2023-02-12T20:44:12;102851.28;;;-0.46;100.00
69766;BME280;57039;48.014;21.384;2023-02-12T20:45:20;102846.22;;;-0.42;100.00
69766;BME280;57039;48.014;21.384;2023-02-12T20:46:25;102838.41;;;-0.46;100.00
69766;BME280;57039;48.014;21.384;2023-02-12T20:47:32;102852.38;;;-0.37;100.00
69766;BME280;57039;48.014;21.384;2023-02-12T20:48:37;102852.38;;;-0.37;100.00
69766;BME280;57039;48.014;21.384;2023-02-12T20:49:43;102834.94;;;-0.46;100.00
69766;BME280;57039;48.014;21.384;2023-02-12T20:50:48;102847.37;;;-0.33;100.00
69766;BME280;57039;48.014;21.384;2023-02-12T20:51:55;102849.09;;;-0.32;100.00
69766;BME280;57039;48.014;21.384;2023-02-12T20:53:02;102849.19;;;-0.29;100.00
69766;BME280;57039;48.014;21.384;2023-02-12T20:54:10;102850.13;;;-0.27;100.00
69766;BME280;57039;48.014;21.384;2023-02-12T20:55:15;102811.75;;;-0.46;100.00
69766;BME280;57039;48.014;21.384;2023-02-12T20:56:24;102846.59;;;-0.29;100.00
69766;BME280;57039;48.014;21.384;2023-02-12T20:57:31;102843.09;;;-0.31;100.00
69766;BME280;57039;48.014;21.384;2023-02-12T20:58:38;102849.88;;;-0.34;100.00
69766;BME280;57039;48.014;21.384;2023-02-12T20:59:44;102855.66;;;-0.43;100.00
69766;BME280;57039;48.014;21.384;2023-02-12T21:00:50;102860.63;;;-0.51;100.00
69766;BME280;57039;48.014;21.384;2023-02-12T21:01:54;102861.03;;;-0.65;100.00
69766;BME280;57039;48.014;21.384;2023-02-12T21:02:59;102860.34;;;-0.88;100.00
69766;BME280;57039;48.014;21.384;2023-02-12T21:04:09;102858.53;;;-0.93;100.00
69766;BME280;57039;48.014;21.384;2023-02-12T21:05:15;102856.44;;;-1.04;100.00
69766;BME280;57039;48.014;21.384;2023-02-12T21:06:21;102848.25;;;-1.20;100.00
69766;BME280;57039;48.014;21.384;2023-02-12T21:07:27;102863.91;;;-1.12;100.00
69766;BME280;57039;48.014;21.384;2023-02-12T21:08:37;102869.03;;;-1.13;100.00
69766;BME280;57039;48.014;21.384;2023-02-12T21:09:42;102866.41;;;-1.15;100.00
69766;BME280;57039;48.014;21.384;2023-02-12T21:10:47;102873.34;;;-1.12;100.00
69766;BME280;57039;48.014;21.384;2023-02-12T21:11:52;102868.31;;;-1.09;100.00
69766;BME280;57039;48.014;21.384;2023-02-12T21:13:01;102863.34;;;-1.03;100.00
69766;BME280;57039;48.014;21.384;2023-02-12T21:14:08;102862.38;;;-1.07;100.00
69766;BME280;57039;48.014;21.384;2023-02-12T21:15:25;102865.06;;;-1.02;100.00
69766;BME280;57039;48.014;21.384;2023-02-12T21:16:32;102865.25;;;-0.96;100.00
69766;BME280;57039;48.014;21.384;2023-02-12T21:17:38;102861.00;;;-0.96;100.00
69766;BME280;57039;48.014;21.384;2023-02-12T21:18:43;102860.09;;;-0.96;100.00
69766;BME280;57039;48.014;21.384;2023-02-12T21:19:52;102860.19;;;-0.93;100.00
69766;BME280;57039;48.014;21.384;2023-02-12T21:21:06;102863.44;;;-1.00;100.00
69766;BME280;57039;48.014;21.384;2023-02-12T21:22:11;102864.88;;;-1.08;100.00
69766;BME280;57039;48.014;21.384;2023-02-12T21:23:15;102865.72;;;-1.09;100.00
69766;BME280;57039;48.014;21.384;2023-02-12T21:24:24;102862.19;;;-1.13;100.00
69766;BME280;57039;48.014;21.384;2023-02-12T21:25:29;102867.44;;;-1.10;100.00
69766;BME280;57039;48.014;21.384;2023-02-12T21:26:35;102867.53;;;-1.07;100.00
69766;BME280;57039;48.014;21.384;2023-02-12T21:27:39;102869.34;;;-1.03;100.00
69766;BME280;57039;48.014;21.384;2023-02-12T21:28:44;102864.28;;;-1.00;100.00
69766;BME280;57039;48.014;21.384;2023-02-12T21:29:49;102859.06;;;-1.03;100.00
69766;BME280;57039;48.014;21.384;2023-02-12T21:30:54;102853.87;;;-1.04;100.00
69766;BME280;57039;48.014;21.384;2023-02-12T21:31:59;102859.31;;;-0.94;100.00
69766;BME280;57039;48.014;21.384;2023-02-12T21:33:06;102865.34;;;-0.93;100.00
69766;BME280;57039;48.014;21.384;2023-02-12T21:34:15;102863.72;;;-0.91;100.00
69766;BME280;57039;48.014;21.384;2023-02-12T21:35:19;102873.25;;;-0.87;100.00
69766;BME280;57039;48.014;21.384;2023-02-12T21:36:29;102870.59;;;-0.90;100.00
69766;BME280;57039;48.014;21.384;2023-02-12T21:37:33;102873.22;;;-0.88;100.00
69766;BME280;57039;48.014;21.384;2023-02-12T21:38:40;102870.56;;;-0.92;100.00
69766;BME280;57039;48.014;21.384;2023-02-12T21:39:43;102858.97;;;-1.06;100.00
69766;BME280;57039;48.014;21.384;2023-02-12T21:40:46;102877.25;;;-0.98;100.00
69766;BME280;57039;48.014;21.384;2023-02-12T21:41:55;102866.78;;;-1.03;100.00
69766;BME280;57039;48.014;21.384;2023-02-12T21:43:03;102874.56;;;-1.01;100.00